createdAt,value
2018-08-22T00:01:07.255Z,64.69
2018-08-22T00:03:35.302Z,64.46
2018-08-22T00:06:03.344Z,64.81
2018-08-22T00:08:36.689Z,64.82
2018-08-22T00:11:04.767Z,65.02
2018-08-22T00:13:32.827Z,65.13
2018-08-22T00:16:00.896Z,64.75
2018-08-22T00:18:28.936Z,65.74
2018-08-22T00:20:57.011Z,65.88
2018-08-22T00:23:25.054Z,65.94
2018-08-22T00:25:53.153Z,66.12
2018-08-22T00:28:21.190Z,66.01
2018-08-22T00:30:49.256Z,65.86
2018-08-22T00:33:17.307Z,65.54
2018-08-22T00:35:45.615Z,65.78
2018-08-22T00:38:13.658Z,66.00
2018-08-22T00:40:42.021Z,66.26
2018-08-22T00:43:10.113Z,66.14
2018-08-22T00:45:38.217Z,66.39
2018-08-22T00:48:06.263Z,66.90
2018-08-22T00:50:34.343Z,66.59
2018-08-22T00:53:02.460Z,66.73
2018-08-22T00:55:30.536Z,66.83
2018-08-22T00:57:58.599Z,66.61
2018-08-22T01:00:26.688Z,66.25
2018-08-22T01:02:54.740Z,67.16
2018-08-22T01:05:22.891Z,66.86
2018-08-22T01:07:50.985Z,66.73
2018-08-22T01:10:19.080Z,67.04
2018-08-22T01:12:47.142Z,67.00
2018-08-22T01:15:15.256Z,66.53
2018-08-22T01:17:43.292Z,66.28
2018-08-22T01:20:11.375Z,66.69
2018-08-22T01:22:39.476Z,66.27
2018-08-22T01:25:07.564Z,66.21
2018-08-22T01:27:35.612Z,65.92
2018-08-22T01:30:03.695Z,66.30
2018-08-22T01:32:31.741Z,66.32
2018-08-22T01:34:59.799Z,66.45
2018-08-22T01:37:27.886Z,66.34
2018-08-22T01:39:55.943Z,65.78
2018-08-22T01:42:24.003Z,65.77
2018-08-22T01:44:52.048Z,66.22
2018-08-22T01:47:20.118Z,65.68
2018-08-22T01:49:48.167Z,65.58
2018-08-22T01:52:16.244Z,65.98
2018-08-22T01:54:44.331Z,65.82
2018-08-22T01:57:12.387Z,66.15
2018-08-22T01:59:40.443Z,65.58
2018-08-22T02:02:08.503Z,65.45
2018-08-22T02:04:36.554Z,66.02
2018-08-22T02:07:04.633Z,65.30
2018-08-22T02:09:32.698Z,65.98
2018-08-22T02:12:00.760Z,65.58
2018-08-22T02:14:28.819Z,65.30
2018-08-22T02:16:56.873Z,65.32
2018-08-22T02:19:24.975Z,65.50
2018-08-22T02:21:53.055Z,65.18
2018-08-22T02:24:21.111Z,65.47
2018-08-22T02:26:49.203Z,65.25
2018-08-22T02:29:17.271Z,65.77
2018-08-22T02:31:45.341Z,65.33
2018-08-22T02:34:13.391Z,65.90
2018-08-22T02:36:41.451Z,65.44
2018-08-22T02:39:09.955Z,65.63
2018-08-22T02:41:38.021Z,66.26
2018-08-22T02:44:06.083Z,65.41
2018-08-22T02:46:34.142Z,65.86
2018-08-22T02:49:02.192Z,65.71
2018-08-22T02:51:30.317Z,66.15
2018-08-22T02:53:58.382Z,66.16
2018-08-22T02:56:26.470Z,66.12
2018-08-22T02:58:54.487Z,65.89
2018-08-22T03:01:22.579Z,65.90
2018-08-22T03:03:50.636Z,65.93
2018-08-22T03:06:18.683Z,65.97
2018-08-22T03:08:46.715Z,66.04
2018-08-22T03:11:14.786Z,66.45
2018-08-22T03:13:42.822Z,66.22
2018-08-22T03:16:10.906Z,66.10
2018-08-22T03:18:38.944Z,66.35
2018-08-22T03:21:07.012Z,66.56
2018-08-22T03:23:35.059Z,66.14
2018-08-22T03:26:03.151Z,66.33
2018-08-22T03:28:31.205Z,66.38
2018-08-22T03:30:59.296Z,66.33
2018-08-22T03:33:27.352Z,65.96
2018-08-22T03:35:55.434Z,66.22
2018-08-22T03:38:23.487Z,66.01
2018-08-22T03:40:51.535Z,66.09
2018-08-22T03:43:19.627Z,65.98
2018-08-22T03:45:47.671Z,65.96
2018-08-22T03:48:16.031Z,66.02
2018-08-22T03:50:44.098Z,66.49
2018-08-22T03:53:12.691Z,66.06
2018-08-22T03:55:40.764Z,66.04
2018-08-22T03:58:08.840Z,66.14
2018-08-22T04:00:36.879Z,66.54
2018-08-22T04:03:04.970Z,65.92
2018-08-22T04:05:33.026Z,66.26
2018-08-22T04:08:01.111Z,65.60
2018-08-22T04:10:29.164Z,66.32
2018-08-22T04:12:57.247Z,66.02
2018-08-22T04:15:25.324Z,65.80
2018-08-22T04:17:53.380Z,65.63
2018-08-22T04:20:21.442Z,65.44
2018-08-22T04:22:49.502Z,65.88
2018-08-22T04:25:17.546Z,65.51
2018-08-22T04:27:45.618Z,65.82
2018-08-22T04:30:13.671Z,65.65
2018-08-22T04:32:41.775Z,65.64
2018-08-22T04:35:09.833Z,65.81
2018-08-22T04:37:37.919Z,65.09
2018-08-22T04:40:05.984Z,65.17
2018-08-22T04:42:34.041Z,65.22
2018-08-22T04:45:02.115Z,65.69
2018-08-22T04:47:30.188Z,65.66
2018-08-22T04:49:58.237Z,65.55
2018-08-22T04:52:26.323Z,65.19
2018-08-22T04:54:54.371Z,65.94
2018-08-22T04:57:22.428Z,65.60
2018-08-22T04:59:50.483Z,65.17
2018-08-22T05:02:18.575Z,64.95
2018-08-22T05:04:46.641Z,65.30
2018-08-22T05:07:14.690Z,64.72
2018-08-22T05:09:42.789Z,64.73
2018-08-22T05:12:10.831Z,64.74
2018-08-22T05:14:38.924Z,64.74
2018-08-22T05:17:06.996Z,64.87
2018-08-22T05:19:35.092Z,64.57
2018-08-22T05:22:03.151Z,64.46
2018-08-22T05:24:31.211Z,63.97
2018-08-22T05:26:59.280Z,63.74
2018-08-22T05:29:27.433Z,63.67
2018-08-22T05:31:58.117Z,63.86
2018-08-22T05:34:26.484Z,63.50
2018-08-22T05:36:54.535Z,63.34
2018-08-22T05:39:22.634Z,63.51
2018-08-22T05:41:50.691Z,62.86
2018-08-22T05:44:18.943Z,63.17
2018-08-22T05:46:47.004Z,63.29
2018-08-22T05:49:15.164Z,62.79
2018-08-22T05:51:43.226Z,62.59
2018-08-22T05:54:11.321Z,62.67
2018-08-22T05:56:39.367Z,62.66
2018-08-22T05:59:07.456Z,62.13
2018-08-22T06:01:35.526Z,61.52
2018-08-22T06:04:03.608Z,61.21
2018-08-22T06:06:31.657Z,61.00
2018-08-22T06:08:59.736Z,60.28
2018-08-22T06:11:27.815Z,59.98
2018-08-22T06:13:55.871Z,58.35
2018-08-22T06:16:24.007Z,57.17
2018-08-22T06:18:52.143Z,56.18
2018-08-22T06:21:20.187Z,55.31
2018-08-22T06:23:48.255Z,53.17
2018-08-22T06:26:16.331Z,53.88
2018-08-22T06:28:44.388Z,51.52
2018-08-22T06:31:12.466Z,50.40
2018-08-22T06:33:40.528Z,47.96
2018-08-22T06:36:08.575Z,46.16
2018-08-22T06:38:36.658Z,47.70
2018-08-22T06:41:04.915Z,47.22
2018-08-22T06:43:32.992Z,45.77
2018-08-22T06:46:01.079Z,45.15
2018-08-22T06:48:29.136Z,43.62
2018-08-22T06:50:57.179Z,42.02
2018-08-22T06:53:25.261Z,43.44
2018-08-22T06:55:53.287Z,43.07
2018-08-22T06:58:21.411Z,42.00
2018-08-22T07:00:49.489Z,41.04
2018-08-22T07:03:17.530Z,42.12
2018-08-22T07:05:45.594Z,41.13
2018-08-22T07:08:13.747Z,41.01
2018-08-22T07:10:41.746Z,39.88
2018-08-22T07:13:09.835Z,37.08
2018-08-22T07:15:37.903Z,38.33
2018-08-22T07:18:06.008Z,37.59
2018-08-22T07:20:34.136Z,37.94
2018-08-22T07:23:02.329Z,36.65
2018-08-22T07:25:30.422Z,37.70
2018-08-22T07:27:58.499Z,35.48
2018-08-22T07:30:26.610Z,35.63
2018-08-22T07:32:54.673Z,35.01
2018-08-22T07:35:22.750Z,34.80
2018-08-22T07:37:50.837Z,34.63
2018-08-22T07:40:18.915Z,34.34
2018-08-22T07:42:46.988Z,34.25
2018-08-22T07:45:15.173Z,34.60
2018-08-22T07:47:43.359Z,33.87
2018-08-22T07:50:11.495Z,32.74
2018-08-22T07:52:47.949Z,32.76
2018-08-22T07:55:16.122Z,33.43
2018-08-22T07:57:44.200Z,32.80
2018-08-22T08:00:12.345Z,32.56
2018-08-22T08:02:40.400Z,33.19
2018-08-22T08:05:08.911Z,31.14
2018-08-22T08:07:37.067Z,31.81
2018-08-22T08:10:05.229Z,32.19
2018-08-22T08:12:40.219Z,31.23
2018-08-22T08:15:08.829Z,31.30
2018-08-22T08:17:36.888Z,32.70
2018-08-22T08:20:05.364Z,32.07
2018-08-22T08:22:34.097Z,32.18
2018-08-22T08:25:02.290Z,31.47
2018-08-22T08:27:30.387Z,31.47
2018-08-22T08:29:58.460Z,33.12
2018-08-22T08:32:26.563Z,33.12
2018-08-22T08:34:55.090Z,33.37
2018-08-22T08:37:23.156Z,33.37
2018-08-22T08:39:51.276Z,32.22
2018-08-22T08:42:19.367Z,32.60
2018-08-22T08:44:47.480Z,32.56
2018-08-22T08:47:15.563Z,32.35
2018-08-22T08:49:43.665Z,32.39
2018-08-22T08:52:11.730Z,32.98
2018-08-22T08:54:39.785Z,32.87
2018-08-22T08:57:07.927Z,33.22
2018-08-22T08:59:35.999Z,33.05
2018-08-22T09:02:04.049Z,33.49
2018-08-22T09:04:32.178Z,32.19
2018-08-22T09:07:00.695Z,32.46
2018-08-22T09:09:28.858Z,33.45
2018-08-22T09:11:58.764Z,33.56
2018-08-22T09:14:26.878Z,34.13
2018-08-22T09:16:55.323Z,33.04
2018-08-22T09:19:23.440Z,33.36
2018-08-22T09:21:51.513Z,32.49
2018-08-22T09:24:19.763Z,31.33
2018-08-22T09:26:47.975Z,31.42
2018-08-22T09:29:16.043Z,30.55
2018-08-22T09:31:44.158Z,29.76
2018-08-22T09:34:12.309Z,30.67
2018-08-22T09:36:40.621Z,31.23
2018-08-22T09:39:10.971Z,29.90
2018-08-22T09:41:39.072Z,29.50
2018-08-22T09:44:07.712Z,30.75
2018-08-22T09:46:35.891Z,30.34
2018-08-22T09:49:04.081Z,31.56
2018-08-22T09:51:32.249Z,31.66
2018-08-22T09:54:00.418Z,31.70
2018-08-22T09:56:28.548Z,32.46
2018-08-22T09:58:57.687Z,32.95
2018-08-22T10:01:31.146Z,32.19
2018-08-22T10:04:00.482Z,33.25
2018-08-22T10:06:32.369Z,32.88
2018-08-22T10:09:01.411Z,33.37
2018-08-22T10:11:29.508Z,33.05
2018-08-22T10:13:58.191Z,32.67
2018-08-22T10:16:27.800Z,33.03
2018-08-22T10:18:56.219Z,33.68
2018-08-22T10:21:25.358Z,33.05
2018-08-22T10:23:53.415Z,33.29
2018-08-22T10:26:21.516Z,32.78
2018-08-22T10:28:49.766Z,31.86
2018-08-22T10:31:17.863Z,32.86
2018-08-22T10:33:45.982Z,31.85
2018-08-22T10:36:14.025Z,32.67
2018-08-22T10:38:42.145Z,32.43
2018-08-22T10:41:10.434Z,32.27
2018-08-22T10:43:38.572Z,32.43
2018-08-22T10:46:06.935Z,33.29
2018-08-22T10:48:34.993Z,32.84
2018-08-22T10:51:03.136Z,32.83
2018-08-22T10:53:31.247Z,32.17
2018-08-22T10:55:59.315Z,32.60
2018-08-22T10:58:27.404Z,32.30
2018-08-22T11:00:55.473Z,32.33
2018-08-22T11:03:23.572Z,32.67
2018-08-22T11:05:51.638Z,32.65
2018-08-22T11:08:19.697Z,32.80
2018-08-22T11:10:47.762Z,32.57
2018-08-22T11:13:15.821Z,32.43
2018-08-22T11:15:43.942Z,33.06
2018-08-22T11:18:12.093Z,32.92
2018-08-22T11:20:48.345Z,31.94
2018-08-22T11:23:29.105Z,31.74
2018-08-22T11:26:08.923Z,32.33
2018-08-22T11:28:48.404Z,31.86
2018-08-22T11:31:28.393Z,32.22
2018-08-22T11:34:07.842Z,31.32
2018-08-22T11:36:35.371Z,31.41
2018-08-22T11:39:04.928Z,30.69
2018-08-22T11:41:33.219Z,30.47
2018-08-22T11:44:01.262Z,31.17
2018-08-22T11:46:29.337Z,31.48
2018-08-22T11:48:57.400Z,31.96
2018-08-22T11:51:25.457Z,31.94
2018-08-22T11:53:53.597Z,31.25
2018-08-22T11:56:21.637Z,31.22
2018-08-22T11:58:49.743Z,30.57
2018-08-22T12:01:17.863Z,30.99
2018-08-22T12:03:45.916Z,31.16
2018-08-22T12:06:13.981Z,31.37
2018-08-22T12:08:43.023Z,30.90
2018-08-22T12:11:11.082Z,31.42
2018-08-22T12:13:39.147Z,31.38
2018-08-22T12:16:07.245Z,31.01
2018-08-22T12:18:35.283Z,30.99
2018-08-22T12:21:03.354Z,30.31
2018-08-22T12:23:31.404Z,30.93
2018-08-22T12:25:59.452Z,29.98
2018-08-22T12:28:27.499Z,30.46
2018-08-22T12:30:55.580Z,30.87
2018-08-22T12:33:23.643Z,30.42
2018-08-22T12:35:51.713Z,30.42
2018-08-22T12:38:19.759Z,30.52
2018-08-22T12:40:47.812Z,29.82
2018-08-22T12:43:15.855Z,30.99
2018-08-22T12:45:43.923Z,29.75
2018-08-22T12:48:12.004Z,30.41
2018-08-22T12:50:40.065Z,30.15
2018-08-22T12:53:08.115Z,29.44
2018-08-22T12:55:36.199Z,30.87
2018-08-22T12:58:04.288Z,29.63
2018-08-22T13:00:32.366Z,30.88
2018-08-22T13:03:00.837Z,30.90
2018-08-22T13:05:29.067Z,29.87
2018-08-22T13:07:57.370Z,30.61
2018-08-22T13:10:25.496Z,30.51
2018-08-22T13:12:53.619Z,29.71
2018-08-22T13:15:21.909Z,30.40
2018-08-22T13:17:50.155Z,31.20
2018-08-22T13:20:18.333Z,30.92
2018-08-22T13:22:46.400Z,30.72
2018-08-22T13:25:14.603Z,30.16
2018-08-22T13:27:42.756Z,30.58
2018-08-22T13:30:11.237Z,30.24
2018-08-22T13:32:39.357Z,30.52
2018-08-22T13:35:07.878Z,30.22
2018-08-22T13:37:36.190Z,30.58
2018-08-22T13:40:04.428Z,30.66
2018-08-22T13:42:32.527Z,30.00
2018-08-22T13:45:00.816Z,30.57
2018-08-22T13:47:28.892Z,30.29
2018-08-22T13:49:56.984Z,31.37
2018-08-22T13:52:25.891Z,30.90
2018-08-22T13:54:54.469Z,30.62
2018-08-22T13:57:22.562Z,29.75
2018-08-22T13:59:50.691Z,30.15
2018-08-22T14:02:18.882Z,31.33
2018-08-22T14:04:47.099Z,30.23
2018-08-22T14:07:15.547Z,30.23
2018-08-22T14:09:43.632Z,31.17
2018-08-22T14:12:11.968Z,31.06
2018-08-22T14:14:40.341Z,31.42
2018-08-22T14:17:08.814Z,30.95
2018-08-22T14:19:37.036Z,30.95
2018-08-22T14:22:05.737Z,31.52
2018-08-22T14:24:33.813Z,30.99
2018-08-22T14:27:01.965Z,30.68
2018-08-22T14:29:30.492Z,31.13
2018-08-22T14:31:58.571Z,30.82
2018-08-22T14:34:26.618Z,30.76
2018-08-22T14:36:54.736Z,30.48
2018-08-22T14:39:23.369Z,30.94
2018-08-22T14:41:51.408Z,30.66
2018-08-22T14:44:19.611Z,30.62
2018-08-22T14:46:48.742Z,30.62
2018-08-22T14:49:16.801Z,30.04
2018-08-22T14:51:44.919Z,30.52
2018-08-22T14:54:13.023Z,31.10
2018-08-22T14:56:41.108Z,30.56
2018-08-22T14:59:09.168Z,30.41
2018-08-22T15:01:37.384Z,30.14
2018-08-22T15:04:05.834Z,29.83
2018-08-22T15:06:34.139Z,29.84
2018-08-22T15:09:07.499Z,31.02
2018-08-22T15:11:36.457Z,31.32
2018-08-22T15:14:05.043Z,30.61
2018-08-22T15:16:33.192Z,30.97
2018-08-22T15:19:01.292Z,30.82
2018-08-22T15:21:29.364Z,30.72
2018-08-22T15:23:57.432Z,30.95
2018-08-22T15:26:25.805Z,30.79
2018-08-22T15:28:53.884Z,30.97
2018-08-22T15:31:21.965Z,31.11
2018-08-22T15:33:50.019Z,30.98
2018-08-22T15:36:20.022Z,31.01
2018-08-22T15:38:48.175Z,31.13
2018-08-22T15:41:16.419Z,31.52
2018-08-22T15:43:44.455Z,30.91
2018-08-22T15:46:12.526Z,31.50
2018-08-22T15:48:40.620Z,31.89
2018-08-22T15:51:08.712Z,31.74
2018-08-22T15:53:36.823Z,31.46
2018-08-22T15:56:05.187Z,31.81
2018-08-22T15:58:33.296Z,31.86
2018-08-22T16:01:01.399Z,30.86
2018-08-22T16:03:29.463Z,31.20
2018-08-22T16:05:57.683Z,31.81
2018-08-22T16:08:27.038Z,31.54
2018-08-22T16:10:55.193Z,32.33
2018-08-22T16:13:30.365Z,31.25
2018-08-22T16:16:01.012Z,31.90
2018-08-22T16:18:29.116Z,32.25
2018-08-22T16:20:58.356Z,32.52
2018-08-22T16:23:27.639Z,32.23
2018-08-22T16:25:56.599Z,32.41
2018-08-22T16:28:25.219Z,32.26
2018-08-22T16:30:57.173Z,32.06
2018-08-22T16:33:23.831Z,33.03
2018-08-22T16:35:51.918Z,32.66
2018-08-22T16:38:19.968Z,32.34
2018-08-22T16:40:54.745Z,32.34
2018-08-22T16:43:38.183Z,32.62
2018-08-22T16:46:08.039Z,32.80
2018-08-22T16:48:36.296Z,32.61
2018-08-22T16:51:04.408Z,32.47
2018-08-22T16:53:32.792Z,32.73
2018-08-22T16:56:00.843Z,32.40
2018-08-22T16:58:28.907Z,32.50
2018-08-22T17:00:56.971Z,32.79
2018-08-22T17:03:25.371Z,32.55
2018-08-22T17:06:00.276Z,33.08
2018-08-22T17:08:29.074Z,32.62
2018-08-22T17:10:58.585Z,33.62
2018-08-22T17:13:33.423Z,33.35
2018-08-22T17:16:02.116Z,33.91
2018-08-22T17:18:30.151Z,34.02
2018-08-22T17:20:58.235Z,34.62
2018-08-22T17:23:26.278Z,34.48
2018-08-22T17:25:54.356Z,34.65
2018-08-22T17:28:38.849Z,34.69
2018-08-22T17:31:07.031Z,34.64
2018-08-22T17:33:41.235Z,34.01
2018-08-22T17:36:10.377Z,34.78
2018-08-22T17:38:38.557Z,35.05
2018-08-22T17:41:06.596Z,35.44
2018-08-22T17:43:54.171Z,35.39
2018-08-22T17:46:23.178Z,35.20
2018-08-22T17:48:51.682Z,35.23
2018-08-22T17:51:19.755Z,35.37
2018-08-22T17:53:47.852Z,35.37
2018-08-22T17:56:15.948Z,35.53
2018-08-22T17:58:44.070Z,35.55
2018-08-22T18:01:12.179Z,35.61
2018-08-22T18:03:40.265Z,35.69
2018-08-22T18:06:08.452Z,36.43
2018-08-22T18:08:36.545Z,36.08
2018-08-22T18:11:04.940Z,36.60
2018-08-22T18:13:32.999Z,36.61
2018-08-22T18:16:01.059Z,37.11
2018-08-22T18:18:29.156Z,37.39
2018-08-22T18:20:59.226Z,37.73
2018-08-22T18:23:27.291Z,37.78
2018-08-22T18:26:01.641Z,37.88
2018-08-22T18:28:29.999Z,38.38
2018-08-22T18:30:58.109Z,38.61
2018-08-22T18:33:26.198Z,38.80
2018-08-22T18:35:54.280Z,38.68
2018-08-22T18:38:22.387Z,39.02
2018-08-22T18:41:01.883Z,38.83
2018-08-22T18:43:29.954Z,39.71
2018-08-22T18:46:04.065Z,39.51
2018-08-22T18:48:33.318Z,40.29
2018-08-22T18:51:01.974Z,40.25
2018-08-22T18:53:30.035Z,41.13
2018-08-22T18:56:09.912Z,41.26
2018-08-22T18:58:38.115Z,40.99
2018-08-22T19:01:06.477Z,41.95
2018-08-22T19:03:34.756Z,42.13
2018-08-22T19:06:02.817Z,42.42
2018-08-22T19:08:30.907Z,42.76
2018-08-22T19:10:58.985Z,42.68
2018-08-22T19:13:27.280Z,42.54
2018-08-22T19:15:58.435Z,42.96
2018-08-22T19:18:26.594Z,43.64
2018-08-22T19:20:56.904Z,43.70
2018-08-22T19:23:25.183Z,44.00
2018-08-22T19:25:54.056Z,44.13
2018-08-22T19:28:22.152Z,44.63
2018-08-22T19:30:50.379Z,44.73
2018-08-22T19:33:19.900Z,45.11
2018-08-22T19:35:48.149Z,44.99
2018-08-22T19:38:17.688Z,44.46
2018-08-22T19:40:47.008Z,44.80
2018-08-22T19:43:15.166Z,45.45
2018-08-22T19:45:43.223Z,44.80
2018-08-22T19:48:11.309Z,45.49
2018-08-22T19:50:39.419Z,44.95
2018-08-22T19:53:07.461Z,45.45
2018-08-22T19:55:36.210Z,45.65
2018-08-22T19:58:04.283Z,45.92
2018-08-22T20:00:32.380Z,46.04
2018-08-22T20:03:00.471Z,46.03
2018-08-22T20:05:42.972Z,46.28
2018-08-22T20:08:11.206Z,47.08
2018-08-22T20:10:39.266Z,46.48
2018-08-22T20:13:07.346Z,47.03
2018-08-22T20:15:35.448Z,46.94
2018-08-22T20:18:03.608Z,47.46
2018-08-22T20:20:31.679Z,47.85
2018-08-22T20:22:59.886Z,47.78
2018-08-22T20:25:27.867Z,47.33
2018-08-22T20:27:56.129Z,48.10
2018-08-22T20:30:24.204Z,47.96
2018-08-22T20:32:58.323Z,48.78
2018-08-22T20:35:32.191Z,49.25
2018-08-22T20:38:04.601Z,49.64
2018-08-22T20:40:32.665Z,49.24
2018-08-22T20:43:00.745Z,50.10
2018-08-22T20:45:33.125Z,49.97
2018-08-22T20:48:06.465Z,49.81
2018-08-22T20:50:35.181Z,50.18
2018-08-22T20:53:05.396Z,50.85
2018-08-22T20:55:33.672Z,51.28
2018-08-22T20:58:02.367Z,51.43
2018-08-22T21:00:30.571Z,51.70
2018-08-22T21:02:59.420Z,52.80
2018-08-22T21:05:27.484Z,52.50
2018-08-22T21:07:55.560Z,53.72
2018-08-22T21:10:23.703Z,53.66
2018-08-22T21:12:52.127Z,53.40
2018-08-22T21:15:20.261Z,55.18
2018-08-22T21:17:48.369Z,54.58
2018-08-22T21:20:23.598Z,54.41
2018-08-22T21:22:52.213Z,55.42
2018-08-22T21:25:20.299Z,56.81
2018-08-22T21:27:49.177Z,55.87
2018-08-22T21:30:17.636Z,56.33
2018-08-22T21:32:46.622Z,56.56
2018-08-22T21:35:20.145Z,56.04
2018-08-22T21:37:48.200Z,57.17
2018-08-22T21:40:16.496Z,57.09
2018-08-22T21:42:44.821Z,56.88
2018-08-22T21:45:12.927Z,58.66
2018-08-22T21:47:41.000Z,58.64
2018-08-22T21:50:09.113Z,57.46
2018-08-22T21:52:50.734Z,57.96
2018-08-22T21:55:20.256Z,58.54
2018-08-22T21:57:48.358Z,59.12
2018-08-22T22:00:16.463Z,59.74
2018-08-22T22:02:44.565Z,59.04
2018-08-22T22:05:13.200Z,59.56
2018-08-22T22:07:41.422Z,60.14
2018-08-22T22:10:12.596Z,60.34
2018-08-22T22:12:41.202Z,59.33
2018-08-22T22:15:13.710Z,60.80
2018-08-22T22:17:42.470Z,60.71
2018-08-22T22:20:10.945Z,61.90
2018-08-22T22:22:39.031Z,61.54
2018-08-22T22:25:07.305Z,61.97
2018-08-22T22:27:35.595Z,61.55
2018-08-22T22:30:06.226Z,61.78
2018-08-22T22:32:34.904Z,61.79
2018-08-22T22:35:03.570Z,63.06
2018-08-22T22:37:31.763Z,62.18
2018-08-22T22:39:59.908Z,62.48
2018-08-22T22:42:28.611Z,62.83
2018-08-22T22:44:58.315Z,63.45
2018-08-22T22:47:29.388Z,62.07
2018-08-22T22:49:58.001Z,64.17
2018-08-22T22:52:45.008Z,63.23
2018-08-22T22:55:13.402Z,63.55
2018-08-22T22:57:42.697Z,63.21
2018-08-22T23:00:12.434Z,64.92
2018-08-22T23:02:40.621Z,64.00
2018-08-22T23:05:08.931Z,63.69
2018-08-22T23:07:40.275Z,63.66
2018-08-22T23:10:09.780Z,63.82
2018-08-22T23:12:38.749Z,63.90
2018-08-22T23:15:08.107Z,64.15
2018-08-22T23:17:36.175Z,63.95
2018-08-22T23:20:40.161Z,64.12
2018-08-22T23:23:26.447Z,63.67
2018-08-22T23:25:55.453Z,64.06
2018-08-22T23:28:23.516Z,63.87
2018-08-22T23:30:51.572Z,64.25
2018-08-22T23:33:19.649Z,64.73
2018-08-22T23:35:47.731Z,64.54
2018-08-22T23:38:21.182Z,64.31
2018-08-22T23:40:49.235Z,64.27
2018-08-22T23:43:17.316Z,64.93
2018-08-22T23:45:50.116Z,64.22
2018-08-22T23:48:23.578Z,64.83
2018-08-22T23:50:56.213Z,64.63
2018-08-22T23:53:29.188Z,65.08
2018-08-22T23:56:11.895Z,64.15
2018-08-22T23:58:41.195Z,65.67
